sensor_id;sensor_type;location;lat;lon;timestamp;P1;durP1;ratioP1;P2;durP2;ratioP2
70920;SDS011;58572;48.110;19.838;2023-05-16T00:01:19;5.65;;;3.40;;
70920;SDS011;58572;48.110;19.838;2023-05-16T00:03:47;5.72;;;3.55;;
70920;SDS011;58572;48.110;19.838;2023-05-16T00:06:14;8.50;;;3.40;;
70920;SDS011;58572;48.110;19.838;2023-05-16T00:08:43;5.70;;;2.90;;
70920;SDS011;58572;48.110;19.838;2023-05-16T00:11:10;4.13;;;2.90;;
70920;SDS011;58572;48.110;19.838;2023-05-16T00:13:37;12.32;;;3.60;;
70920;SDS011;58572;48.110;19.838;2023-05-16T00:16:06;3.60;;;2.25;;
70920;SDS011;58572;48.110;19.838;2023-05-16T00:21:01;4.47;;;2.47;;
70920;SDS011;58572;48.110;19.838;2023-05-16T00:23:29;4.43;;;3.03;;
70920;SDS011;58572;48.110;19.838;2023-05-16T00:25:57;5.88;;;2.63;;
70920;SDS011;58572;48.110;19.838;2023-05-16T00:28:24;3.50;;;2.67;;
70920;SDS011;58572;48.110;19.838;2023-05-16T00:30:51;4.38;;;2.90;;
70920;SDS011;58572;48.110;19.838;2023-05-16T00:33:18;4.82;;;2.63;;
70920;SDS011;58572;48.110;19.838;2023-05-16T00:35:45;7.38;;;2.55;;
70920;SDS011;58572;48.110;19.838;2023-05-16T00:40:40;4.05;;;2.75;;
70920;SDS011;58572;48.110;19.838;2023-05-16T00:43:08;4.10;;;2.50;;
70920;SDS011;58572;48.110;19.838;2023-05-16T00:45:35;4.28;;;2.88;;
70920;SDS011;58572;48.110;19.838;2023-05-16T00:48:02;4.55;;;2.63;;
70920;SDS011;58572;48.110;19.838;2023-05-16T00:50:31;5.03;;;2.47;;
70920;SDS011;58572;48.110;19.838;2023-05-16T00:52:59;4.72;;;3.08;;
70920;SDS011;58572;48.110;19.838;2023-05-16T00:55:27;3.60;;;2.88;;
70920;SDS011;58572;48.110;19.838;2023-05-16T00:57:54;3.50;;;2.50;;
70920;SDS011;58572;48.110;19.838;2023-05-16T01:00:24;10.07;;;2.55;;
70920;SDS011;58572;48.110;19.838;2023-05-16T01:02:52;3.15;;;2.40;;
70920;SDS011;58572;48.110;19.838;2023-05-16T01:05:19;3.95;;;2.28;;
70920;SDS011;58572;48.110;19.838;2023-05-16T01:10:13;4.47;;;2.50;;
70920;SDS011;58572;48.110;19.838;2023-05-16T01:12:43;4.15;;;2.15;;
70920;SDS011;58572;48.110;19.838;2023-05-16T01:17:49;4.30;;;2.40;;
70920;SDS011;58572;48.110;19.838;2023-05-16T01:20:26;5.13;;;1.90;;
70920;SDS011;58572;48.110;19.838;2023-05-16T01:23:03;2.70;;;1.98;;
70920;SDS011;58572;48.110;19.838;2023-05-16T01:25:44;2.95;;;1.85;;
70920;SDS011;58572;48.110;19.838;2023-05-16T01:28:23;4.35;;;2.20;;
70920;SDS011;58572;48.110;19.838;2023-05-16T01:30:52;3.50;;;2.08;;
70920;SDS011;58572;48.110;19.838;2023-05-16T01:33:19;3.17;;;2.08;;
70920;SDS011;58572;48.110;19.838;2023-05-16T01:35:49;3.95;;;2.20;;
70920;SDS011;58572;48.110;19.838;2023-05-16T01:38:23;2.88;;;1.80;;
70920;SDS011;58572;48.110;19.838;2023-05-16T01:40:52;3.45;;;2.22;;
70920;SDS011;58572;48.110;19.838;2023-05-16T01:43:28;2.80;;;1.90;;
70920;SDS011;58572;48.110;19.838;2023-05-16T01:46:01;2.95;;;1.98;;
70920;SDS011;58572;48.110;19.838;2023-05-16T01:48:36;5.28;;;2.05;;
70920;SDS011;58572;48.110;19.838;2023-05-16T01:51:08;2.90;;;2.13;;
70920;SDS011;58572;48.110;19.838;2023-05-16T01:53:38;3.15;;;2.08;;
70920;SDS011;58572;48.110;19.838;2023-05-16T01:56:08;3.75;;;2.13;;
70920;SDS011;58572;48.110;19.838;2023-05-16T01:58:41;3.30;;;2.15;;
70920;SDS011;58572;48.110;19.838;2023-05-16T02:01:09;3.78;;;1.88;;
70920;SDS011;58572;48.110;19.838;2023-05-16T02:03:36;2.80;;;1.92;;
70920;SDS011;58572;48.110;19.838;2023-05-16T02:06:03;2.70;;;1.70;;
70920;SDS011;58572;48.110;19.838;2023-05-16T02:08:30;2.03;;;1.45;;
70920;SDS011;58572;48.110;19.838;2023-05-16T02:10:57;2.58;;;1.52;;
70920;SDS011;58572;48.110;19.838;2023-05-16T02:13:25;2.75;;;1.50;;
70920;SDS011;58572;48.110;19.838;2023-05-16T02:15:53;2.20;;;1.60;;
70920;SDS011;58572;48.110;19.838;2023-05-16T02:18:20;2.75;;;1.58;;
70920;SDS011;58572;48.110;19.838;2023-05-16T02:20:47;2.58;;;1.40;;
70920;SDS011;58572;48.110;19.838;2023-05-16T02:25:42;1.90;;;1.10;;
70920;SDS011;58572;48.110;19.838;2023-05-16T02:28:09;4.20;;;1.60;;
70920;SDS011;58572;48.110;19.838;2023-05-16T02:30:36;3.70;;;1.40;;
70920;SDS011;58572;48.110;19.838;2023-05-16T02:33:05;3.38;;;1.00;;
70920;SDS011;58572;48.110;19.838;2023-05-16T02:35:32;3.65;;;1.40;;
70920;SDS011;58572;48.110;19.838;2023-05-16T02:37:59;2.65;;;1.63;;
70920;SDS011;58572;48.110;19.838;2023-05-16T02:40:26;2.85;;;1.85;;
70920;SDS011;58572;48.110;19.838;2023-05-16T02:42:54;2.80;;;1.90;;
70920;SDS011;58572;48.110;19.838;2023-05-16T02:45:21;4.43;;;1.75;;
70920;SDS011;58572;48.110;19.838;2023-05-16T02:47:48;4.57;;;1.90;;
70920;SDS011;58572;48.110;19.838;2023-05-16T02:50:16;2.65;;;1.77;;
70920;SDS011;58572;48.110;19.838;2023-05-16T02:52:43;2.97;;;1.70;;
70920;SDS011;58572;48.110;19.838;2023-05-16T02:55:11;6.07;;;1.90;;
70920;SDS011;58572;48.110;19.838;2023-05-16T02:57:38;1.98;;;1.25;;
70920;SDS011;58572;48.110;19.838;2023-05-16T03:00:05;3.15;;;1.58;;
70920;SDS011;58572;48.110;19.838;2023-05-16T03:02:35;2.85;;;1.70;;
70920;SDS011;58572;48.110;19.838;2023-05-16T03:05:02;3.05;;;2.15;;
70920;SDS011;58572;48.110;19.838;2023-05-16T03:07:32;7.00;;;2.10;;
70920;SDS011;58572;48.110;19.838;2023-05-16T03:09:59;3.55;;;2.40;;
70920;SDS011;58572;48.110;19.838;2023-05-16T03:12:26;5.15;;;2.75;;
70920;SDS011;58572;48.110;19.838;2023-05-16T03:14:53;4.40;;;3.15;;
70920;SDS011;58572;48.110;19.838;2023-05-16T03:17:20;13.13;;;3.72;;
70920;SDS011;58572;48.110;19.838;2023-05-16T03:19:47;7.85;;;3.00;;
70920;SDS011;58572;48.110;19.838;2023-05-16T03:22:14;6.93;;;3.78;;
70920;SDS011;58572;48.110;19.838;2023-05-16T03:24:46;7.28;;;3.65;;
70920;SDS011;58572;48.110;19.838;2023-05-16T03:27:13;5.50;;;3.58;;
70920;SDS011;58572;48.110;19.838;2023-05-16T03:29:40;4.63;;;3.03;;
70920;SDS011;58572;48.110;19.838;2023-05-16T03:32:10;3.78;;;2.70;;
70920;SDS011;58572;48.110;19.838;2023-05-16T03:34:37;4.60;;;2.78;;
70920;SDS011;58572;48.110;19.838;2023-05-16T03:37:05;4.13;;;3.10;;
70920;SDS011;58572;48.110;19.838;2023-05-16T03:39:32;4.03;;;2.67;;
70920;SDS011;58572;48.110;19.838;2023-05-16T03:42:01;4.20;;;2.70;;
70920;SDS011;58572;48.110;19.838;2023-05-16T03:44:29;4.18;;;2.35;;
70920;SDS011;58572;48.110;19.838;2023-05-16T03:46:56;7.35;;;2.80;;
70920;SDS011;58572;48.110;19.838;2023-05-16T03:49:25;4.00;;;2.92;;
70920;SDS011;58572;48.110;19.838;2023-05-16T03:51:53;5.30;;;3.00;;
70920;SDS011;58572;48.110;19.838;2023-05-16T03:54:21;5.22;;;3.08;;
70920;SDS011;58572;48.110;19.838;2023-05-16T03:56:48;5.10;;;3.22;;
70920;SDS011;58572;48.110;19.838;2023-05-16T03:59:17;7.82;;;4.07;;
70920;SDS011;58572;48.110;19.838;2023-05-16T04:01:44;5.38;;;3.30;;
70920;SDS011;58572;48.110;19.838;2023-05-16T04:04:11;4.40;;;2.97;;
70920;SDS011;58572;48.110;19.838;2023-05-16T04:06:42;4.18;;;3.00;;
70920;SDS011;58572;48.110;19.838;2023-05-16T04:09:09;6.20;;;3.13;;
70920;SDS011;58572;48.110;19.838;2023-05-16T04:11:36;4.47;;;3.30;;
70920;SDS011;58572;48.110;19.838;2023-05-16T04:14:04;4.55;;;3.47;;
70920;SDS011;58572;48.110;19.838;2023-05-16T04:16:33;4.97;;;3.20;;
70920;SDS011;58572;48.110;19.838;2023-05-16T04:19:00;6.40;;;2.90;;
70920;SDS011;58572;48.110;19.838;2023-05-16T04:21:27;3.95;;;2.83;;
70920;SDS011;58572;48.110;19.838;2023-05-16T04:23:55;4.22;;;3.47;;
70920;SDS011;58572;48.110;19.838;2023-05-16T04:26:23;3.83;;;2.65;;
70920;SDS011;58572;48.110;19.838;2023-05-16T04:28:51;4.55;;;3.20;;
70920;SDS011;58572;48.110;19.838;2023-05-16T04:31:19;4.00;;;2.80;;
70920;SDS011;58572;48.110;19.838;2023-05-16T04:33:48;3.95;;;2.67;;
70920;SDS011;58572;48.110;19.838;2023-05-16T04:36:16;3.75;;;2.83;;
70920;SDS011;58572;48.110;19.838;2023-05-16T04:38:43;4.53;;;2.78;;
70920;SDS011;58572;48.110;19.838;2023-05-16T04:41:11;3.90;;;2.60;;
70920;SDS011;58572;48.110;19.838;2023-05-16T04:43:38;4.72;;;2.40;;
70920;SDS011;58572;48.110;19.838;2023-05-16T04:46:06;3.25;;;2.20;;
70920;SDS011;58572;48.110;19.838;2023-05-16T04:48:34;6.22;;;2.30;;
70920;SDS011;58572;48.110;19.838;2023-05-16T04:51:03;10.25;;;3.25;;
70920;SDS011;58572;48.110;19.838;2023-05-16T04:53:30;3.40;;;2.50;;
70920;SDS011;58572;48.110;19.838;2023-05-16T04:55:57;3.88;;;3.03;;
70920;SDS011;58572;48.110;19.838;2023-05-16T04:58:25;7.80;;;3.38;;
70920;SDS011;58572;48.110;19.838;2023-05-16T05:00:53;6.85;;;3.05;;
70920;SDS011;58572;48.110;19.838;2023-05-16T05:03:21;3.88;;;2.50;;
70920;SDS011;58572;48.110;19.838;2023-05-16T05:05:48;6.88;;;2.88;;
70920;SDS011;58572;48.110;19.838;2023-05-16T05:08:18;6.63;;;4.55;;
70920;SDS011;58572;48.110;19.838;2023-05-16T05:10:47;9.73;;;4.20;;
70920;SDS011;58572;48.110;19.838;2023-05-16T05:13:14;8.25;;;5.50;;
70920;SDS011;58572;48.110;19.838;2023-05-16T05:15:41;7.28;;;5.03;;
70920;SDS011;58572;48.110;19.838;2023-05-16T05:18:08;8.65;;;5.40;;
70920;SDS011;58572;48.110;19.838;2023-05-16T05:20:35;6.47;;;4.97;;
70920;SDS011;58572;48.110;19.838;2023-05-16T05:23:03;8.25;;;5.07;;
70920;SDS011;58572;48.110;19.838;2023-05-16T05:25:32;7.05;;;5.25;;
70920;SDS011;58572;48.110;19.838;2023-05-16T05:28:01;9.27;;;6.10;;
70920;SDS011;58572;48.110;19.838;2023-05-16T05:30:28;7.60;;;5.10;;
70920;SDS011;58572;48.110;19.838;2023-05-16T05:32:55;9.45;;;5.60;;
70920;SDS011;58572;48.110;19.838;2023-05-16T05:35:23;11.40;;;6.97;;
70920;SDS011;58572;48.110;19.838;2023-05-16T05:37:50;8.95;;;5.88;;
70920;SDS011;58572;48.110;19.838;2023-05-16T05:40:18;11.65;;;6.15;;
70920;SDS011;58572;48.110;19.838;2023-05-16T05:42:46;8.95;;;5.97;;
70920;SDS011;58572;48.110;19.838;2023-05-16T05:45:14;12.20;;;6.32;;
70920;SDS011;58572;48.110;19.838;2023-05-16T05:50:09;8.30;;;5.50;;
70920;SDS011;58572;48.110;19.838;2023-05-16T05:52:37;9.10;;;6.10;;
70920;SDS011;58572;48.110;19.838;2023-05-16T05:55:04;10.45;;;6.43;;
70920;SDS011;58572;48.110;19.838;2023-05-16T05:57:32;10.25;;;6.55;;
70920;SDS011;58572;48.110;19.838;2023-05-16T06:00:01;10.95;;;7.13;;
70920;SDS011;58572;48.110;19.838;2023-05-16T06:02:29;10.45;;;6.55;;
70920;SDS011;58572;48.110;19.838;2023-05-16T06:04:56;9.25;;;6.43;;
70920;SDS011;58572;48.110;19.838;2023-05-16T06:07:23;12.93;;;6.97;;
70920;SDS011;58572;48.110;19.838;2023-05-16T06:09:51;10.85;;;7.03;;
70920;SDS011;58572;48.110;19.838;2023-05-16T06:12:18;10.10;;;6.35;;
70920;SDS011;58572;48.110;19.838;2023-05-16T06:14:46;9.18;;;6.53;;
70920;SDS011;58572;48.110;19.838;2023-05-16T06:17:14;9.63;;;6.38;;
70920;SDS011;58572;48.110;19.838;2023-05-16T06:19:41;10.15;;;7.10;;
70920;SDS011;58572;48.110;19.838;2023-05-16T06:22:09;10.35;;;6.82;;
70920;SDS011;58572;48.110;19.838;2023-05-16T06:24:36;12.35;;;7.30;;
70920;SDS011;58572;48.110;19.838;2023-05-16T06:27:03;13.40;;;9.02;;
70920;SDS011;58572;48.110;19.838;2023-05-16T06:29:31;11.35;;;6.97;;
70920;SDS011;58572;48.110;19.838;2023-05-16T06:31:58;11.18;;;7.03;;
70920;SDS011;58572;48.110;19.838;2023-05-16T06:34:27;12.23;;;7.25;;
70920;SDS011;58572;48.110;19.838;2023-05-16T06:36:55;12.05;;;7.75;;
70920;SDS011;58572;48.110;19.838;2023-05-16T06:39:22;12.70;;;7.70;;
70920;SDS011;58572;48.110;19.838;2023-05-16T06:41:50;10.57;;;7.15;;
70920;SDS011;58572;48.110;19.838;2023-05-16T06:44:17;10.43;;;7.25;;
70920;SDS011;58572;48.110;19.838;2023-05-16T06:46:44;12.05;;;8.32;;
70920;SDS011;58572;48.110;19.838;2023-05-16T06:49:11;12.27;;;7.90;;
70920;SDS011;58572;48.110;19.838;2023-05-16T06:51:40;12.82;;;8.00;;
70920;SDS011;58572;48.110;19.838;2023-05-16T06:54:07;12.18;;;7.45;;
70920;SDS011;58572;48.110;19.838;2023-05-16T06:56:34;14.95;;;7.82;;
70920;SDS011;58572;48.110;19.838;2023-05-16T06:59:02;12.30;;;7.55;;
70920;SDS011;58572;48.110;19.838;2023-05-16T07:03:56;12.45;;;7.82;;
70920;SDS011;58572;48.110;19.838;2023-05-16T07:06:23;13.57;;;8.85;;
70920;SDS011;58572;48.110;19.838;2023-05-16T07:08:52;12.57;;;7.90;;
70920;SDS011;58572;48.110;19.838;2023-05-16T07:11:20;13.65;;;8.50;;
70920;SDS011;58572;48.110;19.838;2023-05-16T07:13:47;11.32;;;8.27;;
70920;SDS011;58572;48.110;19.838;2023-05-16T07:16:14;12.02;;;7.57;;
70920;SDS011;58572;48.110;19.838;2023-05-16T07:18:41;13.02;;;8.63;;
70920;SDS011;58572;48.110;19.838;2023-05-16T07:21:08;13.13;;;8.40;;
70920;SDS011;58572;48.110;19.838;2023-05-16T07:23:36;12.85;;;9.15;;
70920;SDS011;58572;48.110;19.838;2023-05-16T07:26:04;12.05;;;7.80;;
70920;SDS011;58572;48.110;19.838;2023-05-16T07:28:32;11.10;;;6.75;;
70920;SDS011;58572;48.110;19.838;2023-05-16T07:30:59;11.13;;;8.10;;
70920;SDS011;58572;48.110;19.838;2023-05-16T07:33:26;10.45;;;7.60;;
70920;SDS011;58572;48.110;19.838;2023-05-16T07:35:53;12.45;;;7.82;;
70920;SDS011;58572;48.110;19.838;2023-05-16T07:38:20;11.98;;;8.00;;
70920;SDS011;58572;48.110;19.838;2023-05-16T07:40:47;12.55;;;7.93;;
70920;SDS011;58572;48.110;19.838;2023-05-16T07:43:17;12.48;;;8.90;;
70920;SDS011;58572;48.110;19.838;2023-05-16T07:45:45;12.38;;;7.97;;
70920;SDS011;58572;48.110;19.838;2023-05-16T07:48:12;15.20;;;9.38;;
70920;SDS011;58572;48.110;19.838;2023-05-16T07:50:39;14.18;;;8.65;;
70920;SDS011;58572;48.110;19.838;2023-05-16T07:55:33;18.85;;;11.40;;
70920;SDS011;58572;48.110;19.838;2023-05-16T07:58:01;15.82;;;9.20;;
70920;SDS011;58572;48.110;19.838;2023-05-16T08:00:30;17.80;;;10.90;;
70920;SDS011;58572;48.110;19.838;2023-05-16T08:02:58;17.98;;;10.82;;
70920;SDS011;58572;48.110;19.838;2023-05-16T08:05:25;25.02;;;12.50;;
70920;SDS011;58572;48.110;19.838;2023-05-16T08:07:52;18.90;;;12.23;;
70920;SDS011;58572;48.110;19.838;2023-05-16T08:10:19;28.33;;;16.83;;
70920;SDS011;58572;48.110;19.838;2023-05-16T08:12:47;17.10;;;10.07;;
70920;SDS011;58572;48.110;19.838;2023-05-16T08:15:14;15.65;;;9.55;;
70920;SDS011;58572;48.110;19.838;2023-05-16T08:17:43;29.58;;;16.33;;
70920;SDS011;58572;48.110;19.838;2023-05-16T08:20:11;80.45;;;46.47;;
70920;SDS011;58572;48.110;19.838;2023-05-16T08:22:38;35.03;;;22.65;;
70920;SDS011;58572;48.110;19.838;2023-05-16T08:25:06;30.05;;;17.98;;
70920;SDS011;58572;48.110;19.838;2023-05-16T08:27:33;27.00;;;19.55;;
70920;SDS011;58572;48.110;19.838;2023-05-16T08:30:00;14.48;;;9.30;;
70920;SDS011;58572;48.110;19.838;2023-05-16T08:32:27;14.73;;;10.82;;
70920;SDS011;58572;48.110;19.838;2023-05-16T08:34:56;23.88;;;15.82;;
70920;SDS011;58572;48.110;19.838;2023-05-16T08:37:23;17.25;;;11.30;;
70920;SDS011;58572;48.110;19.838;2023-05-16T08:39:51;20.80;;;14.98;;
70920;SDS011;58572;48.110;19.838;2023-05-16T08:42:18;14.02;;;11.02;;
70920;SDS011;58572;48.110;19.838;2023-05-16T08:44:45;27.23;;;20.17;;
70920;SDS011;58572;48.110;19.838;2023-05-16T08:47:14;10.63;;;7.70;;
70920;SDS011;58572;48.110;19.838;2023-05-16T08:49:47;8.63;;;5.97;;
70920;SDS011;58572;48.110;19.838;2023-05-16T08:52:18;9.55;;;5.70;;
70920;SDS011;58572;48.110;19.838;2023-05-16T08:54:47;8.75;;;5.65;;
70920;SDS011;58572;48.110;19.838;2023-05-16T08:57:16;7.20;;;4.65;;
70920;SDS011;58572;48.110;19.838;2023-05-16T08:59:44;8.82;;;5.45;;
70920;SDS011;58572;48.110;19.838;2023-05-16T09:02:12;6.95;;;3.80;;
70920;SDS011;58572;48.110;19.838;2023-05-16T09:04:39;5.93;;;3.90;;
70920;SDS011;58572;48.110;19.838;2023-05-16T09:07:08;5.88;;;3.97;;
70920;SDS011;58572;48.110;19.838;2023-05-16T09:09:37;7.60;;;5.05;;
70920;SDS011;58572;48.110;19.838;2023-05-16T09:12:04;7.35;;;4.57;;
70920;SDS011;58572;48.110;19.838;2023-05-16T09:14:31;5.85;;;4.03;;
70920;SDS011;58572;48.110;19.838;2023-05-16T09:17:03;7.82;;;4.28;;
70920;SDS011;58572;48.110;19.838;2023-05-16T09:19:37;7.43;;;4.97;;
70920;SDS011;58572;48.110;19.838;2023-05-16T09:22:05;10.98;;;6.13;;
70920;SDS011;58572;48.110;19.838;2023-05-16T09:24:38;7.30;;;4.70;;
70920;SDS011;58572;48.110;19.838;2023-05-16T09:27:09;6.15;;;4.35;;
70920;SDS011;58572;48.110;19.838;2023-05-16T09:29:39;5.10;;;3.50;;
70920;SDS011;58572;48.110;19.838;2023-05-16T09:32:09;6.85;;;4.82;;
70920;SDS011;58572;48.110;19.838;2023-05-16T09:34:38;6.72;;;4.50;;
70920;SDS011;58572;48.110;19.838;2023-05-16T09:37:12;5.35;;;3.55;;
70920;SDS011;58572;48.110;19.838;2023-05-16T09:39:44;6.22;;;4.25;;
70920;SDS011;58572;48.110;19.838;2023-05-16T09:42:12;26.00;;;23.00;;
70920;SDS011;58572;48.110;19.838;2023-05-16T09:44:40;8.60;;;5.68;;
70920;SDS011;58572;48.110;19.838;2023-05-16T09:47:13;9.43;;;5.25;;
70920;SDS011;58572;48.110;19.838;2023-05-16T09:49:40;12.88;;;5.20;;
70920;SDS011;58572;48.110;19.838;2023-05-16T09:52:08;6.22;;;4.57;;
70920;SDS011;58572;48.110;19.838;2023-05-16T09:54:35;6.63;;;4.30;;
70920;SDS011;58572;48.110;19.838;2023-05-16T09:57:04;5.45;;;3.75;;
70920;SDS011;58572;48.110;19.838;2023-05-16T09:59:34;6.82;;;4.43;;
70920;SDS011;58572;48.110;19.838;2023-05-16T10:02:02;6.50;;;4.60;;
70920;SDS011;58572;48.110;19.838;2023-05-16T10:04:32;7.35;;;5.05;;
70920;SDS011;58572;48.110;19.838;2023-05-16T10:07:01;8.60;;;5.95;;
70920;SDS011;58572;48.110;19.838;2023-05-16T10:09:30;8.68;;;6.38;;
70920;SDS011;58572;48.110;19.838;2023-05-16T10:11:59;44.55;;;34.08;;
70920;SDS011;58572;48.110;19.838;2023-05-16T10:14:32;9.25;;;6.35;;
70920;SDS011;58572;48.110;19.838;2023-05-16T10:17:02;9.63;;;5.82;;
70920;SDS011;58572;48.110;19.838;2023-05-16T10:19:30;10.52;;;6.53;;
70920;SDS011;58572;48.110;19.838;2023-05-16T10:22:03;9.00;;;4.68;;
70920;SDS011;58572;48.110;19.838;2023-05-16T10:24:33;9.73;;;5.72;;
70920;SDS011;58572;48.110;19.838;2023-05-16T10:27:04;8.30;;;5.40;;
70920;SDS011;58572;48.110;19.838;2023-05-16T10:29:33;7.80;;;5.63;;
70920;SDS011;58572;48.110;19.838;2023-05-16T10:32:01;13.98;;;9.88;;
70920;SDS011;58572;48.110;19.838;2023-05-16T10:34:30;8.32;;;5.50;;
70920;SDS011;58572;48.110;19.838;2023-05-16T10:36:58;10.50;;;6.43;;
70920;SDS011;58572;48.110;19.838;2023-05-16T10:39:26;10.75;;;5.10;;
70920;SDS011;58572;48.110;19.838;2023-05-16T10:41:54;8.35;;;4.70;;
70920;SDS011;58572;48.110;19.838;2023-05-16T10:46:50;9.05;;;6.38;;
70920;SDS011;58572;48.110;19.838;2023-05-16T10:49:18;9.48;;;6.47;;
70920;SDS011;58572;48.110;19.838;2023-05-16T10:51:48;12.48;;;7.07;;
70920;SDS011;58572;48.110;19.838;2023-05-16T10:54:32;10.05;;;6.28;;
70920;SDS011;58572;48.110;19.838;2023-05-16T10:57:04;10.98;;;6.57;;
70920;SDS011;58572;48.110;19.838;2023-05-16T10:59:39;8.40;;;5.63;;
70920;SDS011;58572;48.110;19.838;2023-05-16T11:02:26;8.95;;;5.85;;
70920;SDS011;58572;48.110;19.838;2023-05-16T11:07:25;9.10;;;5.97;;
70920;SDS011;58572;48.110;19.838;2023-05-16T11:10:08;55.95;;;14.70;;
70920;SDS011;58572;48.110;19.838;2023-05-16T11:12:44;13.35;;;9.02;;
70920;SDS011;58572;48.110;19.838;2023-05-16T11:15:16;16.52;;;12.60;;
70920;SDS011;58572;48.110;19.838;2023-05-16T11:17:48;9.93;;;6.30;;
70920;SDS011;58572;48.110;19.838;2023-05-16T11:20:25;7.88;;;5.85;;
70920;SDS011;58572;48.110;19.838;2023-05-16T11:25:55;8.25;;;5.30;;
70920;SDS011;58572;48.110;19.838;2023-05-16T11:28:24;8.38;;;5.60;;
70920;SDS011;58572;48.110;19.838;2023-05-16T11:30:53;7.32;;;4.63;;
70920;SDS011;58572;48.110;19.838;2023-05-16T11:33:25;8.30;;;4.70;;
70920;SDS011;58572;48.110;19.838;2023-05-16T11:36:03;7.80;;;4.70;;
70920;SDS011;58572;48.110;19.838;2023-05-16T11:38:32;6.97;;;3.88;;
70920;SDS011;58572;48.110;19.838;2023-05-16T11:41:03;7.07;;;4.93;;
70920;SDS011;58572;48.110;19.838;2023-05-16T11:43:38;7.05;;;5.05;;
70920;SDS011;58572;48.110;19.838;2023-05-16T11:46:09;6.65;;;4.63;;
70920;SDS011;58572;48.110;19.838;2023-05-16T11:48:39;7.90;;;4.70;;
70920;SDS011;58572;48.110;19.838;2023-05-16T11:51:06;9.45;;;6.30;;
70920;SDS011;58572;48.110;19.838;2023-05-16T11:53:36;9.23;;;6.65;;
70920;SDS011;58572;48.110;19.838;2023-05-16T11:56:04;9.20;;;5.82;;
70920;SDS011;58572;48.110;19.838;2023-05-16T11:58:33;8.98;;;5.80;;
70920;SDS011;58572;48.110;19.838;2023-05-16T12:01:02;9.48;;;5.78;;
70920;SDS011;58572;48.110;19.838;2023-05-16T12:03:30;8.05;;;5.30;;
70920;SDS011;58572;48.110;19.838;2023-05-16T12:06:01;9.73;;;7.15;;
70920;SDS011;58572;48.110;19.838;2023-05-16T12:08:28;9.18;;;5.85;;
70920;SDS011;58572;48.110;19.838;2023-05-16T12:13:23;8.82;;;5.90;;
70920;SDS011;58572;48.110;19.838;2023-05-16T12:15:51;12.43;;;7.72;;
70920;SDS011;58572;48.110;19.838;2023-05-16T12:18:18;10.73;;;6.70;;
70920;SDS011;58572;48.110;19.838;2023-05-16T12:20:46;13.20;;;8.00;;
70920;SDS011;58572;48.110;19.838;2023-05-16T12:23:15;11.75;;;7.20;;
70920;SDS011;58572;48.110;19.838;2023-05-16T12:25:44;10.35;;;6.35;;
70920;SDS011;58572;48.110;19.838;2023-05-16T12:28:13;11.27;;;7.43;;
70920;SDS011;58572;48.110;19.838;2023-05-16T12:30:41;10.18;;;7.32;;
70920;SDS011;58572;48.110;19.838;2023-05-16T12:33:10;10.98;;;7.25;;
70920;SDS011;58572;48.110;19.838;2023-05-16T12:35:39;10.93;;;7.25;;
70920;SDS011;58572;48.110;19.838;2023-05-16T12:38:09;11.50;;;6.95;;
70920;SDS011;58572;48.110;19.838;2023-05-16T12:40:39;9.73;;;6.93;;
70920;SDS011;58572;48.110;19.838;2023-05-16T12:43:11;11.15;;;6.63;;
70920;SDS011;58572;48.110;19.838;2023-05-16T12:45:39;12.38;;;7.93;;
70920;SDS011;58572;48.110;19.838;2023-05-16T12:48:10;12.55;;;8.02;;
70920;SDS011;58572;48.110;19.838;2023-05-16T12:50:38;12.00;;;8.73;;
70920;SDS011;58572;48.110;19.838;2023-05-16T12:53:09;11.02;;;7.70;;
70920;SDS011;58572;48.110;19.838;2023-05-16T12:55:40;11.10;;;8.30;;
70920;SDS011;58572;48.110;19.838;2023-05-16T12:58:08;14.48;;;9.50;;
70920;SDS011;58572;48.110;19.838;2023-05-16T13:00:36;13.50;;;9.45;;
70920;SDS011;58572;48.110;19.838;2023-05-16T13:03:03;11.98;;;8.68;;
70920;SDS011;58572;48.110;19.838;2023-05-16T13:05:31;14.13;;;9.93;;
70920;SDS011;58572;48.110;19.838;2023-05-16T13:07:59;12.85;;;8.38;;
70920;SDS011;58572;48.110;19.838;2023-05-16T13:12:55;15.43;;;10.32;;
70920;SDS011;58572;48.110;19.838;2023-05-16T13:15:24;12.13;;;8.50;;
70920;SDS011;58572;48.110;19.838;2023-05-16T13:17:51;11.85;;;8.93;;
70920;SDS011;58572;48.110;19.838;2023-05-16T13:20:18;12.55;;;9.73;;
70920;SDS011;58572;48.110;19.838;2023-05-16T13:22:46;14.05;;;8.25;;
70920;SDS011;58572;48.110;19.838;2023-05-16T13:25:13;12.95;;;9.50;;
70920;SDS011;58572;48.110;19.838;2023-05-16T13:27:40;12.25;;;7.85;;
70920;SDS011;58572;48.110;19.838;2023-05-16T13:30:10;14.57;;;10.23;;
70920;SDS011;58572;48.110;19.838;2023-05-16T13:32:37;11.65;;;7.82;;
70920;SDS011;58572;48.110;19.838;2023-05-16T13:37:34;11.98;;;8.35;;
70920;SDS011;58572;48.110;19.838;2023-05-16T13:40:01;12.45;;;8.52;;
70920;SDS011;58572;48.110;19.838;2023-05-16T13:42:29;13.80;;;8.80;;
70920;SDS011;58572;48.110;19.838;2023-05-16T13:44:57;10.98;;;8.25;;
70920;SDS011;58572;48.110;19.838;2023-05-16T13:47:25;15.10;;;8.27;;
70920;SDS011;58572;48.110;19.838;2023-05-16T13:49:53;10.55;;;8.02;;
70920;SDS011;58572;48.110;19.838;2023-05-16T13:52:20;11.27;;;7.43;;
70920;SDS011;58572;48.110;19.838;2023-05-16T13:54:47;11.15;;;7.68;;
70920;SDS011;58572;48.110;19.838;2023-05-16T13:57:17;11.93;;;9.23;;
70920;SDS011;58572;48.110;19.838;2023-05-16T13:59:52;11.00;;;7.55;;
70920;SDS011;58572;48.110;19.838;2023-05-16T14:02:19;12.27;;;8.75;;
70920;SDS011;58572;48.110;19.838;2023-05-16T14:04:48;11.55;;;8.75;;
70920;SDS011;58572;48.110;19.838;2023-05-16T14:07:15;8.00;;;5.90;;
70920;SDS011;58572;48.110;19.838;2023-05-16T14:09:42;10.65;;;6.93;;
70920;SDS011;58572;48.110;19.838;2023-05-16T14:12:09;12.75;;;7.63;;
70920;SDS011;58572;48.110;19.838;2023-05-16T14:14:37;11.63;;;7.13;;
70920;SDS011;58572;48.110;19.838;2023-05-16T14:17:04;12.73;;;7.60;;
70920;SDS011;58572;48.110;19.838;2023-05-16T14:22:00;11.75;;;7.95;;
70920;SDS011;58572;48.110;19.838;2023-05-16T14:24:27;12.18;;;7.78;;
70920;SDS011;58572;48.110;19.838;2023-05-16T14:26:54;12.30;;;8.07;;
70920;SDS011;58572;48.110;19.838;2023-05-16T14:29:21;16.88;;;12.15;;
70920;SDS011;58572;48.110;19.838;2023-05-16T14:31:49;12.23;;;7.97;;
70920;SDS011;58572;48.110;19.838;2023-05-16T14:34:16;10.60;;;6.15;;
70920;SDS011;58572;48.110;19.838;2023-05-16T14:36:44;9.10;;;6.22;;
70920;SDS011;58572;48.110;19.838;2023-05-16T14:39:12;13.80;;;8.20;;
70920;SDS011;58572;48.110;19.838;2023-05-16T14:41:41;10.40;;;7.75;;
70920;SDS011;58572;48.110;19.838;2023-05-16T14:44:09;11.27;;;7.97;;
70920;SDS011;58572;48.110;19.838;2023-05-16T14:46:36;11.70;;;7.80;;
70920;SDS011;58572;48.110;19.838;2023-05-16T14:49:04;12.25;;;7.60;;
70920;SDS011;58572;48.110;19.838;2023-05-16T14:51:31;18.75;;;11.07;;
70920;SDS011;58572;48.110;19.838;2023-05-16T14:53:58;12.05;;;8.43;;
70920;SDS011;58572;48.110;19.838;2023-05-16T14:56:26;17.65;;;11.10;;
70920;SDS011;58572;48.110;19.838;2023-05-16T14:58:54;16.20;;;9.68;;
70920;SDS011;58572;48.110;19.838;2023-05-16T15:01:21;16.27;;;9.77;;
70920;SDS011;58572;48.110;19.838;2023-05-16T15:03:48;20.13;;;10.57;;
70920;SDS011;58572;48.110;19.838;2023-05-16T15:06:16;13.70;;;9.30;;
70920;SDS011;58572;48.110;19.838;2023-05-16T15:08:43;22.13;;;13.60;;
70920;SDS011;58572;48.110;19.838;2023-05-16T15:11:10;16.08;;;10.50;;
70920;SDS011;58572;48.110;19.838;2023-05-16T15:13:39;12.65;;;7.35;;